createdAt,value
2018-08-03T00:02:16.782Z,23.70
2018-08-03T00:07:11.471Z,24.10
2018-08-03T00:12:06.181Z,23.66
2018-08-03T00:17:00.804Z,23.57
2018-08-03T00:21:55.919Z,23.51
2018-08-03T00:26:50.555Z,23.47
2018-08-03T00:31:45.139Z,23.51
2018-08-03T00:36:39.762Z,23.43
2018-08-03T00:41:34.372Z,23.33
2018-08-03T00:46:29.010Z,23.24
2018-08-03T00:51:23.615Z,23.34
2018-08-03T00:56:18.291Z,23.22
2018-08-03T01:01:12.967Z,23.21
2018-08-03T01:06:08.434Z,23.12
2018-08-03T01:11:03.355Z,22.98
2018-08-03T01:15:57.969Z,22.62
2018-08-03T01:20:52.611Z,22.88
2018-08-03T01:25:47.184Z,22.88
2018-08-03T01:30:42.775Z,22.83
2018-08-03T01:35:37.418Z,22.74
2018-08-03T01:40:32.119Z,22.73
2018-08-03T01:45:26.787Z,22.71
2018-08-03T01:50:21.431Z,22.57
2018-08-03T01:55:16.522Z,22.58
2018-08-03T02:00:11.211Z,22.08
2018-08-03T02:05:05.892Z,22.10
2018-08-03T02:10:00.525Z,22.35
2018-08-03T02:14:55.274Z,22.45
2018-08-03T02:19:49.904Z,22.35
2018-08-03T02:24:44.542Z,22.31
2018-08-03T02:29:39.221Z,21.89
2018-08-03T02:34:33.890Z,21.78
2018-08-03T02:39:28.550Z,21.74
2018-08-03T02:44:23.111Z,21.86
2018-08-03T02:49:17.726Z,22.00
2018-08-03T02:54:12.322Z,22.00
2018-08-03T02:59:06.947Z,22.03
2018-08-03T03:04:01.539Z,21.91
2018-08-03T03:08:56.109Z,21.82
2018-08-03T03:13:51.001Z,21.67
2018-08-03T03:18:45.588Z,21.93
2018-08-03T03:23:40.198Z,21.70
2018-08-03T03:28:34.803Z,21.77
2018-08-03T03:33:29.390Z,21.64
2018-08-03T03:38:24.012Z,21.57
2018-08-03T03:43:18.719Z,21.54
2018-08-03T03:48:13.797Z,21.42
2018-08-03T03:53:08.353Z,21.56
2018-08-03T03:58:02.947Z,21.55
2018-08-03T04:02:57.548Z,21.50
2018-08-03T04:07:52.095Z,21.41
2018-08-03T04:12:46.671Z,21.49
2018-08-03T04:17:41.296Z,21.12
2018-08-03T04:22:35.964Z,21.25
2018-08-03T04:27:30.528Z,21.40
2018-08-03T04:32:25.161Z,21.40
2018-08-03T04:37:19.829Z,21.48
2018-08-03T04:42:15.252Z,21.53
2018-08-03T04:47:09.759Z,21.68
2018-08-03T04:52:04.441Z,21.95
2018-08-03T04:56:59.011Z,22.45
2018-08-03T05:01:53.684Z,22.83
2018-08-03T05:06:48.401Z,23.18
2018-08-03T05:11:43.957Z,23.46
2018-08-03T05:16:38.860Z,23.71
2018-08-03T05:21:33.496Z,23.95
2018-08-03T05:26:27.922Z,24.10
2018-08-03T05:31:22.592Z,24.25
2018-08-03T05:36:17.749Z,24.42
2018-08-03T05:41:12.375Z,24.45
2018-08-03T05:46:07.346Z,24.58
2018-08-03T05:51:01.882Z,24.47
2018-08-03T05:55:56.518Z,24.44
2018-08-03T06:00:51.101Z,24.46
2018-08-03T06:05:45.785Z,24.26
2018-08-03T06:10:40.453Z,24.01
2018-08-03T06:15:35.063Z,24.05
2018-08-03T06:20:29.687Z,24.06
2018-08-03T06:25:24.265Z,24.17
2018-08-03T06:30:18.922Z,24.26
2018-08-03T06:35:13.561Z,24.50
2018-08-03T06:40:08.253Z,24.69
2018-08-03T06:45:02.943Z,24.90
2018-08-03T06:49:57.539Z,25.14
2018-08-03T06:54:52.201Z,25.39
2018-08-03T06:59:46.808Z,25.48
2018-08-03T07:04:41.472Z,25.61
2018-08-03T07:09:36.068Z,25.82
2018-08-03T07:14:30.728Z,26.20
2018-08-03T07:19:25.278Z,26.46
2018-08-03T07:24:19.956Z,26.77
2018-08-03T07:29:14.552Z,27.23
2018-08-03T07:34:09.214Z,27.52
2018-08-03T07:39:03.996Z,28.05
2018-08-03T07:43:58.636Z,28.12
2018-08-03T07:48:53.684Z,28.30
2018-08-03T07:53:48.323Z,28.39
2018-08-03T07:58:42.899Z,28.31
2018-08-03T08:04:05.154Z,28.78
2018-08-03T08:08:59.893Z,28.94
2018-08-03T08:13:54.578Z,28.73
2018-08-03T08:18:49.164Z,29.13
2018-08-03T08:23:43.754Z,29.24
2018-08-03T08:28:38.403Z,29.40
2018-08-03T08:33:33.498Z,29.62
2018-08-03T08:38:28.091Z,29.98
2018-08-03T08:43:22.719Z,30.11
2018-08-03T08:48:17.331Z,30.16
2018-08-03T08:53:11.984Z,29.92
2018-08-03T08:58:06.639Z,30.31
2018-08-03T09:03:01.104Z,30.33
2018-08-03T09:07:55.884Z,30.70
2018-08-03T09:12:50.421Z,30.63
2018-08-03T09:17:45.014Z,30.77
2018-08-03T09:22:39.605Z,30.88
2018-08-03T09:27:34.176Z,31.29
2018-08-03T09:32:28.846Z,31.48
2018-08-03T09:37:23.539Z,31.54
2018-08-03T09:42:18.186Z,31.38
2018-08-03T09:47:13.575Z,31.77
2018-08-03T09:52:08.485Z,31.39
2018-08-03T09:57:04.198Z,31.39
2018-08-03T10:01:59.035Z,31.58
2018-08-03T10:06:53.658Z,31.88
2018-08-03T10:11:48.241Z,32.04
2018-08-03T10:16:42.868Z,32.05
2018-08-03T10:21:37.548Z,32.06
2018-08-03T10:26:32.305Z,32.03
2018-08-03T10:31:26.968Z,32.59
2018-08-03T10:36:21.580Z,32.69
2018-08-03T10:41:16.168Z,32.60
2018-08-03T10:46:11.005Z,32.84
2018-08-03T10:51:06.097Z,33.11
2018-08-03T10:56:00.721Z,33.46
2018-08-03T11:00:55.357Z,33.18
2018-08-03T11:05:49.979Z,33.21
2018-08-03T11:10:44.578Z,33.34
2018-08-03T11:15:39.207Z,33.15
2018-08-03T11:20:33.792Z,33.11
2018-08-03T11:25:28.479Z,33.42
2018-08-03T11:30:23.098Z,33.50
2018-08-03T11:35:17.749Z,33.37
2018-08-03T11:40:12.373Z,33.83
2018-08-03T11:45:09.040Z,34.08
2018-08-03T11:50:03.983Z,33.77
2018-08-03T11:54:58.658Z,33.95
2018-08-03T11:59:53.251Z,34.07
2018-08-03T12:04:47.846Z,34.18
2018-08-03T12:09:42.489Z,34.16
2018-08-03T12:14:36.851Z,34.23
2018-08-03T12:19:31.439Z,34.19
2018-08-03T12:24:26.073Z,34.08
2018-08-03T12:29:20.692Z,34.01
2018-08-03T12:34:15.315Z,34.13
2018-08-03T12:51:59.682Z,33.71
2018-08-03T12:56:54.597Z,34.04
2018-08-03T13:01:49.195Z,34.16
2018-08-03T13:06:43.856Z,33.65
2018-08-03T13:11:38.471Z,33.63
2018-08-03T13:16:33.153Z,33.82
2018-08-03T13:21:37.871Z,33.87
2018-08-03T13:26:32.618Z,34.07
2018-08-03T13:31:28.123Z,34.24
2018-08-03T13:36:23.960Z,33.81
2018-08-03T13:41:18.581Z,33.91
2018-08-03T13:46:13.384Z,34.02
2018-08-03T13:51:08.023Z,34.08
2018-08-03T13:56:02.671Z,33.89
2018-08-03T14:01:14.209Z,34.12
2018-08-03T14:06:08.799Z,33.85
2018-08-03T14:11:03.400Z,33.92
2018-08-03T14:15:58.084Z,34.00
2018-08-03T14:20:52.796Z,34.08
2018-08-03T14:25:47.443Z,33.96
2018-08-03T14:30:42.049Z,34.04
2018-08-03T14:35:36.700Z,34.03
2018-08-03T14:40:31.327Z,33.82
2018-08-03T14:45:25.974Z,33.97
2018-08-03T14:50:20.683Z,33.94
2018-08-03T14:55:15.260Z,34.05
2018-08-03T15:00:09.958Z,33.86
2018-08-03T15:05:04.671Z,34.08
2018-08-03T15:10:00.180Z,34.17
2018-08-03T15:14:54.819Z,33.85
2018-08-03T15:19:49.463Z,33.76
2018-08-03T15:24:44.100Z,33.82
2018-08-03T15:29:39.331Z,33.81
2018-08-03T15:34:33.984Z,33.89
2018-08-03T15:39:28.665Z,33.71
2018-08-03T15:44:23.241Z,33.58
2018-08-03T15:49:17.896Z,33.55
2018-08-03T15:54:12.485Z,33.56
2018-08-03T15:59:08.287Z,33.57
2018-08-03T16:04:02.959Z,33.69
2018-08-03T16:08:57.660Z,33.86
2018-08-03T16:13:52.288Z,33.66
2018-08-03T16:18:46.903Z,33.66
2018-08-03T16:23:42.593Z,33.62
2018-08-03T16:28:37.197Z,33.44
2018-08-03T16:33:31.815Z,33.42
2018-08-03T16:38:26.400Z,33.41
2018-08-03T16:43:21.103Z,33.23
2018-08-03T16:48:15.832Z,33.22
2018-08-03T16:53:10.482Z,33.35
2018-08-03T16:58:05.127Z,33.26
2018-08-03T17:02:59.775Z,33.18
2018-08-03T17:07:54.369Z,33.14
2018-08-03T17:12:48.948Z,33.04
2018-08-03T17:17:43.551Z,32.96
2018-08-03T17:22:38.397Z,32.88
2018-08-03T17:27:33.036Z,32.82
2018-08-03T17:32:27.663Z,32.73
2018-08-03T17:37:22.291Z,32.55
2018-08-03T17:42:17.381Z,32.56
2018-08-03T17:47:12.000Z,32.47
2018-08-03T17:52:06.699Z,32.28
2018-08-03T17:57:01.451Z,32.23
2018-08-03T18:01:56.572Z,32.08
2018-08-03T18:06:51.290Z,31.84
2018-08-03T18:11:45.999Z,31.78
2018-08-03T18:16:40.897Z,31.68
2018-08-03T18:21:36.822Z,31.63
2018-08-03T18:26:32.007Z,31.39
2018-08-03T18:31:26.598Z,31.22
2018-08-03T18:36:21.308Z,31.11
2018-08-03T18:41:16.816Z,30.97
2018-08-03T18:46:11.837Z,30.77
2018-08-03T18:51:07.084Z,30.73
2018-08-03T18:56:01.796Z,30.71
2018-08-03T19:00:56.575Z,30.57
2018-08-03T19:05:52.171Z,30.39
2018-08-03T19:10:46.790Z,30.19
2018-08-03T19:15:41.420Z,30.06
2018-08-03T19:20:36.122Z,30.06
2018-08-03T19:25:31.437Z,29.97
2018-08-03T19:30:26.307Z,29.81
2018-08-03T19:35:21.112Z,29.84
2018-08-03T19:40:15.885Z,29.74
2018-08-03T19:45:10.850Z,29.82
2018-08-03T19:50:06.197Z,29.76
2018-08-03T19:55:01.212Z,29.84
2018-08-03T19:59:56.910Z,29.60
2018-08-03T20:04:51.599Z,29.63
2018-08-03T20:09:46.268Z,29.45
2018-08-03T20:14:41.940Z,29.55
2018-08-03T20:19:36.604Z,29.42
2018-08-03T20:24:31.264Z,29.43
2018-08-03T20:29:25.845Z,29.07
2018-08-03T20:34:20.436Z,28.99
2018-08-03T20:39:15.095Z,28.73
2018-08-03T20:44:09.699Z,28.50
2018-08-03T20:49:04.347Z,28.52
2018-08-03T20:53:59.221Z,28.20
2018-08-03T20:58:53.905Z,28.07
2018-08-03T21:03:48.578Z,27.98
2018-08-03T21:08:44.207Z,27.82
2018-08-03T21:13:38.849Z,27.74
2018-08-03T21:18:33.675Z,27.72
2018-08-03T21:23:28.376Z,27.53
2018-08-03T21:28:22.964Z,27.43
2018-08-03T21:33:17.587Z,27.43
2018-08-03T21:38:12.158Z,27.27
2018-08-03T21:43:06.796Z,27.26
2018-08-03T21:48:01.413Z,27.07
2018-08-03T21:52:56.034Z,27.12
2018-08-03T21:57:50.692Z,26.96
2018-08-03T22:02:44.992Z,26.99
2018-08-03T22:07:39.687Z,26.85
2018-08-03T22:12:34.314Z,26.97
2018-08-03T22:17:28.934Z,26.76
2018-08-03T22:22:23.649Z,26.62
2018-08-03T22:27:18.263Z,26.62
2018-08-03T22:32:12.912Z,26.58
2018-08-03T22:41:56.663Z,26.52
2018-08-03T22:46:51.332Z,26.45
2018-08-03T22:51:46.618Z,26.20
2018-08-03T22:56:41.217Z,26.47
2018-08-03T23:01:35.935Z,26.46
2018-08-03T23:06:30.620Z,26.28
2018-08-03T23:11:25.247Z,26.17
2018-08-03T23:16:19.908Z,25.90
2018-08-03T23:21:14.544Z,25.86
2018-08-03T23:26:09.152Z,25.85
2018-08-03T23:31:03.824Z,25.80
2018-08-03T23:35:58.480Z,25.75
2018-08-03T23:40:53.142Z,25.67
2018-08-03T23:45:47.813Z,25.60
2018-08-03T23:50:42.495Z,25.65
2018-08-03T23:55:37.137Z,25.64
